CheckWX is a tool to help pilots better visualize weather data.  It is not intended as a substitute for an official pre-flight weather briefing.

09:57:57 UTC

KATT METAR
Austin City Airport
Austin, Texas, USA
Current

1 hour ago

KATT 210851Z AUTO 36003KT 10SM FEW065 14/07 A3025 RMK AO2 SLP237 T01390072 58006
Observed
Mar-21 @ 08:51 UTC
Wind
  • 360° at 3 KTS
Visibility
10 SM
Flight Rules
VFR
Cloud Levels
  • Few at 6,500' AGL
Temperature
14°C / 57°F
Dewpoint
C / 45°F
Humidity
63%
Altimeter
30.25" Hg
Pressure
1023.7 hPa
Previous

2 hours ago

KATT 210751Z AUTO 00000KT 10SM OVC060 15/08 A3026 RMK AO2 SLP241 T01500083
Observed
Mar-21 @ 07:51 UTC
Visibility
10 SM
Flight Rules
VFR
Cloud Levels
  • Overcast at 6,000' AGL
Temperature
15°C / 59°F
Dewpoint
C / 46°F
Humidity
63%
Altimeter
30.26" Hg
Pressure
1024.1 hPa
Previous

3 hours ago

KATT 210651Z AUTO 00000KT 10SM OVC060 16/07 A3026 RMK AO2 SLP242 T01610067
Observed
Mar-21 @ 06:51 UTC
Visibility
10 SM
Flight Rules
VFR
Cloud Levels
  • Overcast at 6,000' AGL
Temperature
16°C / 61°F
Dewpoint
C / 45°F
Humidity
55%
Altimeter
30.26" Hg
Pressure
1024.2 hPa